Porto Rico, Brazil
Current Conditions -  °F | °C
As of 7:00 PM on Thursday 20 Nov 2014 (Local Time) from SBMG Reporting Station
Moderate Rain Moderate Rain  
Wind Chill: 72°   Ceiling: 6000
Heat Index: NA   Visibility: 4mi
Dew Point: NA   Wind: 6mph
Humidity: NA   Direction: 40°NE
Pressure: 29.88"   Gusts: NA
Location:  22.77°S, 53.25°W
Report Text: SBMG 202100Z 04005KT 6000 RA SCT010 SCT020 FEW030TCU BKN060 22/20 Q1012
Loading
Personal Weather Stations






























Interactive Weather Map New forecast layout! Learn more

10-Day Weather Forecast

Advertisements
Track Severe Weather on mobile